sensor_id;sensor_type;location;lat;lon;timestamp;P1;durP1;ratioP1;P2;durP2;ratioP2
8466;SDS011;4270;48.148;11.648;2023-02-22T00:01:03;11.60;;;6.80;;
8466;SDS011;4270;48.148;11.648;2023-02-22T00:03:32;12.50;;;6.70;;
8466;SDS011;4270;48.148;11.648;2023-02-22T00:05:59;13.50;;;7.10;;
8466;SDS011;4270;48.148;11.648;2023-02-22T00:08:28;8.63;;;5.93;;
8466;SDS011;4270;48.148;11.648;2023-02-22T00:10:57;13.60;;;8.20;;
8466;SDS011;4270;48.148;11.648;2023-02-22T00:13:22;12.40;;;7.27;;
8466;SDS011;4270;48.148;11.648;2023-02-22T00:15:47;11.60;;;5.77;;
8466;SDS011;4270;48.148;11.648;2023-02-22T00:18:14;10.80;;;6.47;;
8466;SDS011;4270;48.148;11.648;2023-02-22T00:20:40;12.20;;;7.17;;
8466;SDS011;4270;48.148;11.648;2023-02-22T00:23:06;10.13;;;6.33;;
8466;SDS011;4270;48.148;11.648;2023-02-22T00:25:32;12.93;;;6.57;;
8466;SDS011;4270;48.148;11.648;2023-02-22T00:27:57;11.17;;;6.50;;
8466;SDS011;4270;48.148;11.648;2023-02-22T00:30:25;10.77;;;6.63;;
8466;SDS011;4270;48.148;11.648;2023-02-22T00:32:50;12.00;;;6.37;;
8466;SDS011;4270;48.148;11.648;2023-02-22T00:35:17;14.63;;;6.20;;
8466;SDS011;4270;48.148;11.648;2023-02-22T00:37:46;12.90;;;6.23;;
8466;SDS011;4270;48.148;11.648;2023-02-22T00:40:13;9.60;;;5.63;;
8466;SDS011;4270;48.148;11.648;2023-02-22T00:42:39;11.40;;;6.07;;
8466;SDS011;4270;48.148;11.648;2023-02-22T00:45:05;9.17;;;6.40;;
8466;SDS011;4270;48.148;11.648;2023-02-22T00:47:31;12.07;;;6.07;;
8466;SDS011;4270;48.148;11.648;2023-02-22T00:49:56;8.93;;;5.93;;
8466;SDS011;4270;48.148;11.648;2023-02-22T00:52:21;8.00;;;5.67;;
8466;SDS011;4270;48.148;11.648;2023-02-22T00:54:46;7.60;;;5.70;;
8466;SDS011;4270;48.148;11.648;2023-02-22T00:57:12;11.10;;;5.80;;
8466;SDS011;4270;48.148;11.648;2023-02-22T00:59:37;7.47;;;5.47;;
8466;SDS011;4270;48.148;11.648;2023-02-22T01:02:02;9.63;;;4.87;;
8466;SDS011;4270;48.148;11.648;2023-02-22T01:04:27;10.60;;;5.60;;
8466;SDS011;4270;48.148;11.648;2023-02-22T01:06:53;7.90;;;4.80;;
8466;SDS011;4270;48.148;11.648;2023-02-22T01:09:18;12.07;;;5.50;;
8466;SDS011;4270;48.148;11.648;2023-02-22T01:11:43;9.80;;;5.30;;
8466;SDS011;4270;48.148;11.648;2023-02-22T01:14:09;10.60;;;5.17;;
8466;SDS011;4270;48.148;11.648;2023-02-22T01:16:35;7.93;;;5.07;;
8466;SDS011;4270;48.148;11.648;2023-02-22T01:19:00;9.00;;;4.73;;
8466;SDS011;4270;48.148;11.648;2023-02-22T01:21:26;10.20;;;5.53;;
8466;SDS011;4270;48.148;11.648;2023-02-22T01:23:51;9.57;;;4.67;;
8466;SDS011;4270;48.148;11.648;2023-02-22T01:26:16;14.40;;;5.17;;
8466;SDS011;4270;48.148;11.648;2023-02-22T01:28:41;8.23;;;5.20;;
8466;SDS011;4270;48.148;11.648;2023-02-22T01:31:07;7.20;;;4.23;;
8466;SDS011;4270;48.148;11.648;2023-02-22T01:33:32;10.87;;;5.10;;
8466;SDS011;4270;48.148;11.648;2023-02-22T01:35:58;7.53;;;4.70;;
8466;SDS011;4270;48.148;11.648;2023-02-22T01:38:24;7.97;;;4.87;;
8466;SDS011;4270;48.148;11.648;2023-02-22T01:40:49;8.63;;;3.93;;
8466;SDS011;4270;48.148;11.648;2023-02-22T01:45:46;10.20;;;4.90;;
8466;SDS011;4270;48.148;11.648;2023-02-22T01:50:51;6.77;;;4.30;;
8466;SDS011;4270;48.148;11.648;2023-02-22T01:53:18;12.37;;;4.53;;
8466;SDS011;4270;48.148;11.648;2023-02-22T01:55:44;8.03;;;4.67;;
8466;SDS011;4270;48.148;11.648;2023-02-22T01:58:10;10.17;;;4.37;;
8466;SDS011;4270;48.148;11.648;2023-02-22T02:00:36;7.13;;;4.73;;
8466;SDS011;4270;48.148;11.648;2023-02-22T02:03:05;7.13;;;4.00;;
8466;SDS011;4270;48.148;11.648;2023-02-22T02:05:32;7.80;;;3.87;;
8466;SDS011;4270;48.148;11.648;2023-02-22T02:07:58;5.30;;;4.20;;
8466;SDS011;4270;48.148;11.648;2023-02-22T02:10:27;7.30;;;4.13;;
8466;SDS011;4270;48.148;11.648;2023-02-22T02:12:52;4.40;;;3.37;;
8466;SDS011;4270;48.148;11.648;2023-02-22T02:15:25;4.93;;;4.00;;
8466;SDS011;4270;48.148;11.648;2023-02-22T02:17:53;4.73;;;3.00;;
8466;SDS011;4270;48.148;11.648;2023-02-22T02:20:23;5.60;;;3.53;;
8466;SDS011;4270;48.148;11.648;2023-02-22T02:25:36;5.20;;;3.60;;
8466;SDS011;4270;48.148;11.648;2023-02-22T02:30:43;4.97;;;3.67;;
8466;SDS011;4270;48.148;11.648;2023-02-22T02:38:30;4.73;;;3.57;;
8466;SDS011;4270;48.148;11.648;2023-02-22T02:45:53;4.20;;;3.00;;
8466;SDS011;4270;48.148;11.648;2023-02-22T02:48:20;4.70;;;2.93;;
8466;SDS011;4270;48.148;11.648;2023-02-22T02:50:47;6.03;;;3.17;;
8466;SDS011;4270;48.148;11.648;2023-02-22T02:53:14;3.37;;;2.77;;
8466;SDS011;4270;48.148;11.648;2023-02-22T02:55:42;5.93;;;3.13;;
8466;SDS011;4270;48.148;11.648;2023-02-22T02:58:07;5.00;;;3.33;;
8466;SDS011;4270;48.148;11.648;2023-02-22T03:00:34;5.60;;;3.70;;
8466;SDS011;4270;48.148;11.648;2023-02-22T03:03:10;3.57;;;2.97;;
8466;SDS011;4270;48.148;11.648;2023-02-22T03:23:43;4.33;;;3.47;;
8466;SDS011;4270;48.148;11.648;2023-02-22T03:26:13;3.37;;;3.07;;
8466;SDS011;4270;48.148;11.648;2023-02-22T03:28:40;6.97;;;3.83;;
8466;SDS011;4270;48.148;11.648;2023-02-22T03:31:08;5.07;;;3.10;;
8466;SDS011;4270;48.148;11.648;2023-02-22T03:36:21;6.53;;;3.10;;
8466;SDS011;4270;48.148;11.648;2023-02-22T03:38:48;4.50;;;3.13;;
8466;SDS011;4270;48.148;11.648;2023-02-22T03:41:15;5.97;;;3.50;;
8466;SDS011;4270;48.148;11.648;2023-02-22T03:44:03;4.73;;;3.13;;
8466;SDS011;4270;48.148;11.648;2023-02-22T03:46:26;5.20;;;3.27;;
8466;SDS011;4270;48.148;11.648;2023-02-22T03:48:54;3.77;;;3.00;;
8466;SDS011;4270;48.148;11.648;2023-02-22T03:51:23;3.23;;;2.93;;
8466;SDS011;4270;48.148;11.648;2023-02-22T03:53:49;4.70;;;3.40;;
8466;SDS011;4270;48.148;11.648;2023-02-22T03:56:19;4.87;;;3.30;;
8466;SDS011;4270;48.148;11.648;2023-02-22T03:58:46;4.27;;;3.33;;
8466;SDS011;4270;48.148;11.648;2023-02-22T04:01:13;3.97;;;3.00;;
8466;SDS011;4270;48.148;11.648;2023-02-22T04:03:39;5.50;;;2.93;;
8466;SDS011;4270;48.148;11.648;2023-02-22T04:06:06;3.97;;;2.70;;
8466;SDS011;4270;48.148;11.648;2023-02-22T04:08:31;6.03;;;3.40;;
8466;SDS011;4270;48.148;11.648;2023-02-22T04:10:56;8.10;;;3.87;;
8466;SDS011;4270;48.148;11.648;2023-02-22T04:13:22;4.80;;;3.33;;
8466;SDS011;4270;48.148;11.648;2023-02-22T04:15:47;6.17;;;3.70;;
8466;SDS011;4270;48.148;11.648;2023-02-22T04:18:12;4.00;;;2.93;;
8466;SDS011;4270;48.148;11.648;2023-02-22T04:20:38;2.97;;;2.50;;
8466;SDS011;4270;48.148;11.648;2023-02-22T04:23:03;2.83;;;2.63;;
8466;SDS011;4270;48.148;11.648;2023-02-22T04:25:28;5.27;;;3.30;;
8466;SDS011;4270;48.148;11.648;2023-02-22T04:27:54;3.60;;;2.90;;
8466;SDS011;4270;48.148;11.648;2023-02-22T04:30:19;4.33;;;3.10;;
8466;SDS011;4270;48.148;11.648;2023-02-22T04:32:44;3.37;;;2.93;;
8466;SDS011;4270;48.148;11.648;2023-02-22T04:35:10;6.80;;;3.30;;
8466;SDS011;4270;48.148;11.648;2023-02-22T04:37:35;3.47;;;2.70;;
8466;SDS011;4270;48.148;11.648;2023-02-22T04:40:01;4.43;;;2.80;;
8466;SDS011;4270;48.148;11.648;2023-02-22T04:42:27;2.80;;;2.57;;
8466;SDS011;4270;48.148;11.648;2023-02-22T04:44:53;3.40;;;2.40;;
8466;SDS011;4270;48.148;11.648;2023-02-22T04:47:18;3.70;;;2.30;;
8466;SDS011;4270;48.148;11.648;2023-02-22T04:49:43;3.20;;;2.50;;
8466;SDS011;4270;48.148;11.648;2023-02-22T04:52:09;3.60;;;2.70;;
8466;SDS011;4270;48.148;11.648;2023-02-22T04:54:35;4.27;;;2.70;;
8466;SDS011;4270;48.148;11.648;2023-02-22T04:57:00;4.83;;;3.07;;
8466;SDS011;4270;48.148;11.648;2023-02-22T04:59:25;2.97;;;2.40;;
8466;SDS011;4270;48.148;11.648;2023-02-22T05:01:50;4.80;;;2.10;;
8466;SDS011;4270;48.148;11.648;2023-02-22T05:04:15;4.03;;;2.70;;
8466;SDS011;4270;48.148;11.648;2023-02-22T05:06:41;3.30;;;2.60;;
8466;SDS011;4270;48.148;11.648;2023-02-22T05:09:06;5.67;;;2.70;;
8466;SDS011;4270;48.148;11.648;2023-02-22T05:11:31;3.83;;;2.13;;
8466;SDS011;4270;48.148;11.648;2023-02-22T05:13:56;3.57;;;2.80;;
8466;SDS011;4270;48.148;11.648;2023-02-22T05:16:22;3.50;;;2.77;;
8466;SDS011;4270;48.148;11.648;2023-02-22T05:18:47;2.87;;;2.23;;
8466;SDS011;4270;48.148;11.648;2023-02-22T05:21:12;4.07;;;2.60;;
8466;SDS011;4270;48.148;11.648;2023-02-22T05:23:38;3.23;;;2.73;;
8466;SDS011;4270;48.148;11.648;2023-02-22T05:26:03;4.80;;;2.53;;
8466;SDS011;4270;48.148;11.648;2023-02-22T05:28:30;4.80;;;3.10;;
8466;SDS011;4270;48.148;11.648;2023-02-22T05:30:56;5.10;;;2.30;;
8466;SDS011;4270;48.148;11.648;2023-02-22T05:33:21;3.20;;;2.60;;
8466;SDS011;4270;48.148;11.648;2023-02-22T05:35:46;4.00;;;2.97;;
8466;SDS011;4270;48.148;11.648;2023-02-22T05:38:12;7.97;;;2.70;;
8466;SDS011;4270;48.148;11.648;2023-02-22T05:40:38;3.67;;;2.30;;
8466;SDS011;4270;48.148;11.648;2023-02-22T05:43:04;5.63;;;3.20;;
8466;SDS011;4270;48.148;11.648;2023-02-22T05:45:29;5.07;;;3.00;;
8466;SDS011;4270;48.148;11.648;2023-02-22T05:47:54;6.17;;;3.00;;
8466;SDS011;4270;48.148;11.648;2023-02-22T05:50:20;3.80;;;2.80;;
8466;SDS011;4270;48.148;11.648;2023-02-22T05:52:46;6.80;;;3.30;;
8466;SDS011;4270;48.148;11.648;2023-02-22T05:55:13;22.20;;;3.20;;
8466;SDS011;4270;48.148;11.648;2023-02-22T05:57:38;5.77;;;3.00;;
8466;SDS011;4270;48.148;11.648;2023-02-22T06:00:04;3.77;;;2.70;;
8466;SDS011;4270;48.148;11.648;2023-02-22T06:02:30;6.03;;;2.67;;
8466;SDS011;4270;48.148;11.648;2023-02-22T06:04:56;8.53;;;2.87;;
8466;SDS011;4270;48.148;11.648;2023-02-22T06:07:21;2.67;;;2.23;;
8466;SDS011;4270;48.148;11.648;2023-02-22T06:09:46;5.00;;;2.60;;
8466;SDS011;4270;48.148;11.648;2023-02-22T06:12:12;10.83;;;3.00;;
8466;SDS011;4270;48.148;11.648;2023-02-22T06:14:37;6.60;;;2.77;;
8466;SDS011;4270;48.148;11.648;2023-02-22T06:17:02;5.90;;;3.40;;
8466;SDS011;4270;48.148;11.648;2023-02-22T06:19:29;15.03;;;3.30;;
8466;SDS011;4270;48.148;11.648;2023-02-22T06:21:55;12.10;;;2.90;;
8466;SDS011;4270;48.148;11.648;2023-02-22T06:24:21;5.33;;;3.30;;
8466;SDS011;4270;48.148;11.648;2023-02-22T06:26:53;5.00;;;2.87;;
8466;SDS011;4270;48.148;11.648;2023-02-22T06:29:18;4.77;;;3.30;;
8466;SDS011;4270;48.148;11.648;2023-02-22T06:31:43;3.83;;;2.90;;
8466;SDS011;4270;48.148;11.648;2023-02-22T06:34:09;7.37;;;3.40;;
8466;SDS011;4270;48.148;11.648;2023-02-22T06:36:35;8.13;;;3.80;;
8466;SDS011;4270;48.148;11.648;2023-02-22T06:39:00;5.93;;;3.30;;
8466;SDS011;4270;48.148;11.648;2023-02-22T06:41:25;6.40;;;2.97;;
8466;SDS011;4270;48.148;11.648;2023-02-22T06:43:51;4.93;;;3.13;;
8466;SDS011;4270;48.148;11.648;2023-02-22T06:46:16;15.73;;;3.37;;
8466;SDS011;4270;48.148;11.648;2023-02-22T06:48:41;6.90;;;2.73;;
8466;SDS011;4270;48.148;11.648;2023-02-22T06:51:07;4.37;;;3.40;;
8466;SDS011;4270;48.148;11.648;2023-02-22T06:53:33;6.60;;;3.40;;
8466;SDS011;4270;48.148;11.648;2023-02-22T06:55:58;5.67;;;3.07;;
8466;SDS011;4270;48.148;11.648;2023-02-22T06:58:23;4.30;;;2.90;;
8466;SDS011;4270;48.148;11.648;2023-02-22T07:00:49;9.50;;;3.53;;
8466;SDS011;4270;48.148;11.648;2023-02-22T07:03:14;5.50;;;3.17;;
8466;SDS011;4270;48.148;11.648;2023-02-22T07:05:40;4.33;;;2.77;;
8466;SDS011;4270;48.148;11.648;2023-02-22T07:08:05;4.67;;;3.03;;
8466;SDS011;4270;48.148;11.648;2023-02-22T07:10:31;10.43;;;5.20;;
8466;SDS011;4270;48.148;11.648;2023-02-22T07:12:57;5.27;;;3.40;;
8466;SDS011;4270;48.148;11.648;2023-02-22T07:15:23;9.53;;;3.70;;
8466;SDS011;4270;48.148;11.648;2023-02-22T07:17:49;9.30;;;4.23;;
8466;SDS011;4270;48.148;11.648;2023-02-22T07:20:15;7.37;;;3.30;;
8466;SDS011;4270;48.148;11.648;2023-02-22T07:22:40;4.23;;;3.40;;
8466;SDS011;4270;48.148;11.648;2023-02-22T07:25:06;4.67;;;3.60;;
8466;SDS011;4270;48.148;11.648;2023-02-22T07:27:34;7.83;;;4.23;;
8466;SDS011;4270;48.148;11.648;2023-02-22T07:29:59;4.53;;;3.40;;
8466;SDS011;4270;48.148;11.648;2023-02-22T07:32:25;7.20;;;3.77;;
8466;SDS011;4270;48.148;11.648;2023-02-22T07:34:50;8.20;;;4.10;;
8466;SDS011;4270;48.148;11.648;2023-02-22T07:37:15;4.37;;;3.53;;
8466;SDS011;4270;48.148;11.648;2023-02-22T07:39:41;8.37;;;3.67;;
8466;SDS011;4270;48.148;11.648;2023-02-22T07:42:07;5.13;;;3.33;;
8466;SDS011;4270;48.148;11.648;2023-02-22T07:44:33;5.83;;;3.03;;
8466;SDS011;4270;48.148;11.648;2023-02-22T07:46:58;6.57;;;3.70;;
8466;SDS011;4270;48.148;11.648;2023-02-22T07:49:23;5.47;;;4.40;;
8466;SDS011;4270;48.148;11.648;2023-02-22T07:51:48;6.40;;;3.10;;
8466;SDS011;4270;48.148;11.648;2023-02-22T07:54:13;5.70;;;3.53;;
8466;SDS011;4270;48.148;11.648;2023-02-22T07:56:48;6.70;;;3.93;;
8466;SDS011;4270;48.148;11.648;2023-02-22T07:59:13;7.30;;;3.80;;
8466;SDS011;4270;48.148;11.648;2023-02-22T08:01:39;4.40;;;3.47;;
8466;SDS011;4270;48.148;11.648;2023-02-22T08:04:04;9.23;;;3.80;;
8466;SDS011;4270;48.148;11.648;2023-02-22T08:06:30;5.27;;;3.90;;
8466;SDS011;4270;48.148;11.648;2023-02-22T08:08:56;5.23;;;3.90;;
8466;SDS011;4270;48.148;11.648;2023-02-22T08:11:21;4.77;;;3.53;;
8466;SDS011;4270;48.148;11.648;2023-02-22T08:13:46;7.47;;;3.90;;
8466;SDS011;4270;48.148;11.648;2023-02-22T08:16:11;3.83;;;3.47;;
8466;SDS011;4270;48.148;11.648;2023-02-22T08:18:37;6.97;;;3.40;;
8466;SDS011;4270;48.148;11.648;2023-02-22T08:21:03;4.03;;;3.00;;
8466;SDS011;4270;48.148;11.648;2023-02-22T08:23:28;4.00;;;3.60;;
8466;SDS011;4270;48.148;11.648;2023-02-22T08:25:53;5.53;;;3.83;;
8466;SDS011;4270;48.148;11.648;2023-02-22T08:28:19;3.70;;;3.30;;
8466;SDS011;4270;48.148;11.648;2023-02-22T08:30:46;4.27;;;3.00;;
8466;SDS011;4270;48.148;11.648;2023-02-22T08:33:13;4.53;;;3.17;;
8466;SDS011;4270;48.148;11.648;2023-02-22T08:35:39;4.80;;;2.77;;
8466;SDS011;4270;48.148;11.648;2023-02-22T08:38:05;4.20;;;3.27;;
8466;SDS011;4270;48.148;11.648;2023-02-22T08:40:31;6.00;;;3.30;;
8466;SDS011;4270;48.148;11.648;2023-02-22T08:42:57;3.23;;;2.93;;
8466;SDS011;4270;48.148;11.648;2023-02-22T08:45:23;6.00;;;3.10;;
8466;SDS011;4270;48.148;11.648;2023-02-22T08:47:48;3.80;;;3.20;;
8466;SDS011;4270;48.148;11.648;2023-02-22T08:50:19;6.83;;;3.13;;
8466;SDS011;4270;48.148;11.648;2023-02-22T08:52:44;6.10;;;2.50;;
8466;SDS011;4270;48.148;11.648;2023-02-22T08:55:10;3.03;;;2.63;;
8466;SDS011;4270;48.148;11.648;2023-02-22T08:57:35;4.87;;;2.50;;
8466;SDS011;4270;48.148;11.648;2023-02-22T09:00:00;2.87;;;2.57;;
8466;SDS011;4270;48.148;11.648;2023-02-22T09:02:26;4.27;;;1.97;;
8466;SDS011;4270;48.148;11.648;2023-02-22T09:04:51;2.70;;;2.03;;
8466;SDS011;4270;48.148;11.648;2023-02-22T09:07:16;3.07;;;2.40;;
8466;SDS011;4270;48.148;11.648;2023-02-22T09:09:42;2.70;;;2.13;;
8466;SDS011;4270;48.148;11.648;2023-02-22T09:12:08;2.03;;;1.63;;
8466;SDS011;4270;48.148;11.648;2023-02-22T09:14:33;3.27;;;2.20;;
8466;SDS011;4270;48.148;11.648;2023-02-22T09:16:59;3.10;;;1.90;;
8466;SDS011;4270;48.148;11.648;2023-02-22T09:19:24;3.93;;;2.57;;
8466;SDS011;4270;48.148;11.648;2023-02-22T09:21:56;1.93;;;1.73;;
8466;SDS011;4270;48.148;11.648;2023-02-22T09:24:21;2.73;;;2.47;;
8466;SDS011;4270;48.148;11.648;2023-02-22T09:26:46;3.00;;;2.30;;
8466;SDS011;4270;48.148;11.648;2023-02-22T09:29:15;2.43;;;2.10;;
8466;SDS011;4270;48.148;11.648;2023-02-22T09:31:41;3.27;;;2.33;;
8466;SDS011;4270;48.148;11.648;2023-02-22T09:34:07;3.17;;;2.37;;
8466;SDS011;4270;48.148;11.648;2023-02-22T09:36:40;2.33;;;2.13;;
8466;SDS011;4270;48.148;11.648;2023-02-22T09:39:05;2.50;;;2.03;;
8466;SDS011;4270;48.148;11.648;2023-02-22T09:44:28;3.83;;;2.10;;
8466;SDS011;4270;48.148;11.648;2023-02-22T09:46:56;3.93;;;2.37;;
8466;SDS011;4270;48.148;11.648;2023-02-22T09:49:33;3.10;;;2.60;;
8466;SDS011;4270;48.148;11.648;2023-02-22T09:54:47;3.13;;;1.90;;
8466;SDS011;4270;48.148;11.648;2023-02-22T09:57:19;2.80;;;2.33;;
8466;SDS011;4270;48.148;11.648;2023-02-22T09:59:47;3.95;;;2.58;;
8466;SDS011;4270;48.148;11.648;2023-02-22T10:02:28;5.60;;;2.28;;
8466;SDS011;4270;48.148;11.648;2023-02-22T10:07:58;2.47;;;1.97;;
8466;SDS011;4270;48.148;11.648;2023-02-22T10:10:25;2.63;;;2.08;;
8466;SDS011;4270;48.148;11.648;2023-02-22T10:12:58;2.70;;;1.97;;
8466;SDS011;4270;48.148;11.648;2023-02-22T10:23:24;3.50;;;2.00;;
8466;SDS011;4270;48.148;11.648;2023-02-22T10:25:54;2.63;;;1.80;;
8466;SDS011;4270;48.148;11.648;2023-02-22T10:28:29;2.20;;;1.63;;
8466;SDS011;4270;48.148;11.648;2023-02-22T10:30:57;2.00;;;1.67;;
8466;SDS011;4270;48.148;11.648;2023-02-22T10:33:23;4.93;;;2.13;;
8466;SDS011;4270;48.148;11.648;2023-02-22T10:35:51;1.90;;;1.67;;
8466;SDS011;4270;48.148;11.648;2023-02-22T10:38:30;3.33;;;1.90;;
8466;SDS011;4270;48.148;11.648;2023-02-22T10:41:43;2.60;;;1.57;;
8466;SDS011;4270;48.148;11.648;2023-02-22T10:43:42;2.33;;;1.60;;
8466;SDS011;4270;48.148;11.648;2023-02-22T10:46:09;2.10;;;1.40;;
8466;SDS011;4270;48.148;11.648;2023-02-22T10:48:36;3.60;;;1.40;;
8466;SDS011;4270;48.148;11.648;2023-02-22T10:51:04;4.10;;;1.60;;
8466;SDS011;4270;48.148;11.648;2023-02-22T10:53:29;1.50;;;1.40;;
8466;SDS011;4270;48.148;11.648;2023-02-22T10:58:29;4.97;;;1.43;;
8466;SDS011;4270;48.148;11.648;2023-02-22T11:01:15;2.30;;;1.80;;
8466;SDS011;4270;48.148;11.648;2023-02-22T11:03:41;4.13;;;2.10;;
8466;SDS011;4270;48.148;11.648;2023-02-22T11:06:17;3.27;;;1.50;;
8466;SDS011;4270;48.148;11.648;2023-02-22T11:08:42;3.80;;;1.60;;
8466;SDS011;4270;48.148;11.648;2023-02-22T11:11:23;3.23;;;1.40;;
8466;SDS011;4270;48.148;11.648;2023-02-22T11:13:52;3.40;;;1.60;;
8466;SDS011;4270;48.148;11.648;2023-02-22T11:16:26;6.37;;;3.07;;
8466;SDS011;4270;48.148;11.648;2023-02-22T11:19:11;4.70;;;1.77;;
8466;SDS011;4270;48.148;11.648;2023-02-22T11:21:36;3.93;;;1.50;;
8466;SDS011;4270;48.148;11.648;2023-02-22T11:24:10;1.87;;;1.10;;
8466;SDS011;4270;48.148;11.648;2023-02-22T11:26:41;4.57;;;1.90;;
8466;SDS011;4270;48.148;11.648;2023-02-22T11:29:12;1.67;;;1.27;;
8466;SDS011;4270;48.148;11.648;2023-02-22T11:31:41;3.70;;;1.93;;
8466;SDS011;4270;48.148;11.648;2023-02-22T11:34:07;3.40;;;1.80;;
8466;SDS011;4270;48.148;11.648;2023-02-22T11:36:48;1.60;;;1.50;;
8466;SDS011;4270;48.148;11.648;2023-02-22T11:41:46;1.73;;;1.30;;
8466;SDS011;4270;48.148;11.648;2023-02-22T11:44:28;4.00;;;1.80;;
8466;SDS011;4270;48.148;11.648;2023-02-22T11:46:54;5.13;;;1.63;;
8466;SDS011;4270;48.148;11.648;2023-02-22T11:49:21;4.27;;;1.67;;
8466;SDS011;4270;48.148;11.648;2023-02-22T11:59:50;1.33;;;1.10;;
8466;SDS011;4270;48.148;11.648;2023-02-22T12:05:09;1.50;;;1.23;;
8466;SDS011;4270;48.148;11.648;2023-02-22T12:07:51;3.23;;;1.30;;
8466;SDS011;4270;48.148;11.648;2023-02-22T12:15:22;1.90;;;1.20;;
8466;SDS011;4270;48.148;11.648;2023-02-22T12:17:59;2.50;;;1.07;;
8466;SDS011;4270;48.148;11.648;2023-02-22T12:25:25;1.57;;;1.00;;
8466;SDS011;4270;48.148;11.648;2023-02-22T12:28:06;1.63;;;1.13;;
8466;SDS011;4270;48.148;11.648;2023-02-22T12:30:36;1.50;;;0.90;;
8466;SDS011;4270;48.148;11.648;2023-02-22T12:33:17;2.30;;;1.03;;
8466;SDS011;4270;48.148;11.648;2023-02-22T12:35:44;4.90;;;1.43;;
8466;SDS011;4270;48.148;11.648;2023-02-22T12:38:23;2.53;;;1.53;;
8466;SDS011;4270;48.148;11.648;2023-02-22T12:43:23;1.90;;;0.90;;
8466;SDS011;4270;48.148;11.648;2023-02-22T12:45:53;1.83;;;0.90;;
8466;SDS011;4270;48.148;11.648;2023-02-22T12:48:28;1.33;;;0.87;;
8466;SDS011;4270;48.148;11.648;2023-02-22T12:50:57;1.17;;;0.80;;
8466;SDS011;4270;48.148;11.648;2023-02-22T12:53:26;4.40;;;1.00;;
8466;SDS011;4270;48.148;11.648;2023-02-22T12:58:45;2.77;;;0.77;;
8466;SDS011;4270;48.148;11.648;2023-02-22T13:01:14;1.87;;;1.10;;
8466;SDS011;4270;48.148;11.648;2023-02-22T13:03:43;2.83;;;1.23;;
8466;SDS011;4270;48.148;11.648;2023-02-22T13:06:24;0.80;;;0.60;;
8466;SDS011;4270;48.148;11.648;2023-02-22T13:14:10;1.03;;;0.80;;
8466;SDS011;4270;48.148;11.648;2023-02-22T13:16:46;1.73;;;0.70;;
8466;SDS011;4270;48.148;11.648;2023-02-22T13:21:52;0.70;;;0.70;;
8466;SDS011;4270;48.148;11.648;2023-02-22T13:26:53;1.33;;;0.73;;
8466;SDS011;4270;48.148;11.648;2023-02-22T13:29:26;2.77;;;0.87;;
8466;SDS011;4270;48.148;11.648;2023-02-22T13:34:49;1.30;;;1.07;;
8466;SDS011;4270;48.148;11.648;2023-02-22T13:50:04;1.73;;;0.90;;
8466;SDS011;4270;48.148;11.648;2023-02-22T13:52:31;1.33;;;0.60;;
8466;SDS011;4270;48.148;11.648;2023-02-22T13:55:00;3.00;;;1.07;;
8466;SDS011;4270;48.148;11.648;2023-02-22T13:57:27;1.20;;;0.80;;
8466;SDS011;4270;48.148;11.648;2023-02-22T14:10:45;1.30;;;0.93;;
8466;SDS011;4270;48.148;11.648;2023-02-22T14:13:11;1.27;;;0.90;;
8466;SDS011;4270;48.148;11.648;2023-02-22T14:18:21;1.33;;;0.93;;
8466;SDS011;4270;48.148;11.648;2023-02-22T14:20:48;1.60;;;0.70;;
8466;SDS011;4270;48.148;11.648;2023-02-22T14:26:51;2.13;;;0.70;;
8466;SDS011;4270;48.148;11.648;2023-02-22T14:31:33;1.53;;;0.87;;
8466;SDS011;4270;48.148;11.648;2023-02-22T14:34:15;1.17;;;0.90;;
8466;SDS011;4270;48.148;11.648;2023-02-22T14:39:09;1.13;;;0.80;;
8466;SDS011;4270;48.148;11.648;2023-02-22T14:41:35;0.80;;;0.80;;
8466;SDS011;4270;48.148;11.648;2023-02-22T14:44:01;1.40;;;1.00;;
8466;SDS011;4270;48.148;11.648;2023-02-22T14:46:27;1.03;;;0.90;;
8466;SDS011;4270;48.148;11.648;2023-02-22T14:48:59;2.07;;;0.60;;
8466;SDS011;4270;48.148;11.648;2023-02-22T14:51:29;0.90;;;0.60;;
8466;SDS011;4270;48.148;11.648;2023-02-22T14:54:10;1.40;;;0.80;;
8466;SDS011;4270;48.148;11.648;2023-02-22T14:59:20;3.23;;;0.80;;
8466;SDS011;4270;48.148;11.648;2023-02-22T15:01:48;0.93;;;0.63;;
8466;SDS011;4270;48.148;11.648;2023-02-22T15:06:41;0.70;;;0.60;;
8466;SDS011;4270;48.148;11.648;2023-02-22T15:09:09;1.00;;;0.60;;
8466;SDS011;4270;48.148;11.648;2023-02-22T15:11:35;1.00;;;0.87;;
8466;SDS011;4270;48.148;11.648;2023-02-22T15:14:15;0.87;;;0.80;;
8466;SDS011;4270;48.148;11.648;2023-02-22T15:16:42;1.30;;;0.60;;
8466;SDS011;4270;48.148;11.648;2023-02-22T15:19:11;1.50;;;0.97;;
8466;SDS011;4270;48.148;11.648;2023-02-22T15:21:36;2.20;;;0.83;;
8466;SDS011;4270;48.148;11.648;2023-02-22T15:24:09;1.30;;;0.80;;
8466;SDS011;4270;48.148;11.648;2023-02-22T15:26:40;2.77;;;0.73;;
8466;SDS011;4270;48.148;11.648;2023-02-22T15:29:17;2.60;;;1.10;;
8466;SDS011;4270;48.148;11.648;2023-02-22T15:31:43;2.40;;;1.07;;
8466;SDS011;4270;48.148;11.648;2023-02-22T15:36:39;1.37;;;0.90;;
8466;SDS011;4270;48.148;11.648;2023-02-22T15:39:05;4.37;;;0.90;;
8466;SDS011;4270;48.148;11.648;2023-02-22T15:41:33;1.10;;;0.87;;
8466;SDS011;4270;48.148;11.648;2023-02-22T15:44:00;3.90;;;1.00;;
8466;SDS011;4270;48.148;11.648;2023-02-22T15:46:25;0.87;;;0.60;;
8466;SDS011;4270;48.148;11.648;2023-02-22T15:52:06;1.33;;;1.10;;
8466;SDS011;4270;48.148;11.648;2023-02-22T15:54:36;3.10;;;0.80;;
8466;SDS011;4270;48.148;11.648;2023-02-22T15:57:02;2.43;;;1.23;;
8466;SDS011;4270;48.148;11.648;2023-02-22T15:59:27;1.83;;;0.87;;
8466;SDS011;4270;48.148;11.648;2023-02-22T16:01:57;2.20;;;1.23;;
8466;SDS011;4270;48.148;11.648;2023-02-22T16:04:24;3.83;;;1.20;;
8466;SDS011;4270;48.148;11.648;2023-02-22T16:06:50;2.70;;;1.60;;
8466;SDS011;4270;48.148;11.648;2023-02-22T16:09:18;2.30;;;1.67;;
8466;SDS011;4270;48.148;11.648;2023-02-22T16:11:47;2.07;;;1.40;;
8466;SDS011;4270;48.148;11.648;2023-02-22T16:22:43;1.97;;;1.60;;
8466;SDS011;4270;48.148;11.648;2023-02-22T16:32:47;3.87;;;1.10;;
8466;SDS011;4270;48.148;11.648;2023-02-22T16:35:12;1.60;;;1.20;;
8466;SDS011;4270;48.148;11.648;2023-02-22T16:40:46;7.33;;;2.07;;
8466;SDS011;4270;48.148;11.648;2023-02-22T16:45:29;3.77;;;1.50;;
8466;SDS011;4270;48.148;11.648;2023-02-22T16:47:54;5.27;;;1.57;;
8466;SDS011;4270;48.148;11.648;2023-02-22T16:50:20;3.83;;;1.57;;
8466;SDS011;4270;48.148;11.648;2023-02-22T16:52:46;2.80;;;2.00;;
8466;SDS011;4270;48.148;11.648;2023-02-22T16:55:12;3.40;;;1.93;;
8466;SDS011;4270;48.148;11.648;2023-02-22T16:57:38;3.47;;;1.70;;
8466;SDS011;4270;48.148;11.648;2023-02-22T17:00:04;3.60;;;1.93;;
8466;SDS011;4270;48.148;11.648;2023-02-22T17:02:37;3.60;;;2.10;;
8466;SDS011;4270;48.148;11.648;2023-02-22T17:05:02;4.20;;;2.10;;
8466;SDS011;4270;48.148;11.648;2023-02-22T17:07:27;4.67;;;2.13;;
8466;SDS011;4270;48.148;11.648;2023-02-22T17:09:55;8.13;;;2.00;;
8466;SDS011;4270;48.148;11.648;2023-02-22T17:12:22;3.80;;;1.97;;
8466;SDS011;4270;48.148;11.648;2023-02-22T17:14:47;6.57;;;1.97;;
8466;SDS011;4270;48.148;11.648;2023-02-22T17:17:13;6.40;;;2.07;;
8466;SDS011;4270;48.148;11.648;2023-02-22T17:19:38;5.07;;;2.27;;
8466;SDS011;4270;48.148;11.648;2023-02-22T17:22:03;6.30;;;1.97;;
8466;SDS011;4270;48.148;11.648;2023-02-22T17:24:30;4.00;;;2.47;;
8466;SDS011;4270;48.148;11.648;2023-02-22T17:26:57;10.57;;;3.30;;
8466;SDS011;4270;48.148;11.648;2023-02-22T17:29:23;14.33;;;3.10;;
8466;SDS011;4270;48.148;11.648;2023-02-22T17:31:49;9.73;;;3.30;;
8466;SDS011;4270;48.148;11.648;2023-02-22T17:34:14;7.37;;;4.00;;
8466;SDS011;4270;48.148;11.648;2023-02-22T17:36:39;5.90;;;2.73;;
8466;SDS011;4270;48.148;11.648;2023-02-22T17:39:06;8.30;;;3.80;;
8466;SDS011;4270;48.148;11.648;2023-02-22T17:41:34;4.87;;;2.93;;
8466;SDS011;4270;48.148;11.648;2023-02-22T17:43:59;7.07;;;3.80;;
8466;SDS011;4270;48.148;11.648;2023-02-22T17:46:24;5.93;;;3.23;;
8466;SDS011;4270;48.148;11.648;2023-02-22T17:48:50;6.10;;;2.70;;
8466;SDS011;4270;48.148;11.648;2023-02-22T17:51:18;9.93;;;3.30;;